Gazi — 9HA2542 — position and weather

sailwx.info

Track history (hours):
 
Tides and Currents Weather Stations Pressure Air Temp Water Temp Dewpoint Dewpoint Depression Visibility Wind Speed Wind Dir Waves Ship Positions

Gazi

Last reported at 2016-May-13 19:26 UTC. Time now 2016-May-26 04:41 UTC.
Position N 42°55' E 005°07'.
Warning: this ship's position is 12 days out of date.

Length 153 m; draft 9.6 m.

Type: Ship. MMSI: 248841000.

Date/timePositionNaut miles runAvg speedWind from/ knotsBaromVisibWave heightAir tempDewpointWater temp
2016-May-13 19:26N 42°55' E 005°07'1312.0
2016-May-13 18:23N 43°07' E 005°02'1011.8
2016-May-13 17:34N 43°17' E 004°60'7 6.6
2016-May-13 16:31N 43°23' E 004°58'0 0.1
2016-May-13 15:31N 43°23' E 004°58'0 0.0
2016-May-13 14:31N 43°23' E 004°58'0 0.2
2016-May-13 13:31N 43°23' E 004°57'5 4.9
2016-May-13 12:33N 43°24' E 004°51'0 0.1
2016-May-13 11:32N 43°24' E 004°51'0 0.0
2016-May-13 10:32N 43°24' E 004°51'0 0.0
2016-May-13 09:32N 43°24' E 004°51'0 0.0
2016-May-13 08:32N 43°24' E 004°51'0 0.0
2016-May-13 07:32N 43°24' E 004°51'0 0.0
2016-May-13 06:32N 43°24' E 004°51'0 0.0
2016-May-13 05:32N 43°24' E 004°51'0 0.0
2016-May-13 04:32N 43°24' E 004°51'0 0.0
2016-May-13 03:32N 43°24' E 004°51'0 0.0
2016-May-13 02:32N 43°24' E 004°51'0 0.0
2016-May-13 01:32N 43°24' E 004°51'0 0.0
2016-May-13 00:32N 43°24' E 004°51'0 0.0
2016-May-12 23:32N 43°24' E 004°51'0 0.0
2016-May-12 22:32N 43°24' E 004°51'0 0.0
2016-May-12 21:29N 43°24' E 004°51'0 0.0
2016-May-12 20:32N 43°24' E 004°51'0 0.0
2016-May-12 19:32N 43°24' E 004°51'0 0.0
2016-May-12 18:32N 43°24' E 004°51'0 0.0
2016-May-12 17:20N 43°24' E 004°51'0 0.0
2016-May-12 16:32N 43°24' E 004°51'0 0.0
2016-May-12 15:32N 43°24' E 004°51'0 0.0
2016-May-12 14:33N 43°24' E 004°51'0 0.0
2016-May-12 13:33N 43°24' E 004°51'0 0.0
2016-May-12 12:33N 43°24' E 004°51'0 0.0
2016-May-12 11:33N 43°24' E 004°51'0 0.0
2016-May-12 10:33N 43°24' E 004°51'0 0.0
2016-May-12 09:33N 43°24' E 004°51'0 0.0
2016-May-12 08:33N 43°24' E 004°51'0 0.0
2016-May-12 07:33N 43°24' E 004°51'0 0.0
2016-May-12 06:33N 43°24' E 004°51'0 0.0
2016-May-12 05:33N 43°24' E 004°51'0 0.0
2016-May-12 04:33N 43°24' E 004°51'0 0.0
2016-May-12 03:33N 43°24' E 004°51'0 0.0
2016-May-12 02:33N 43°24' E 004°51'0 0.0
2016-May-12 01:33N 43°24' E 004°51'0 0.0
2016-May-12 00:33N 43°24' E 004°51'0 0.0
2016-May-11 23:33N 43°24' E 004°51'0 0.0
2016-May-11 22:29N 43°24' E 004°51'0 0.0
2016-May-11 21:33N 43°24' E 004°51'0 0.0
2016-May-11 20:33N 43°24' E 004°51'0 0.0
2016-May-11 19:33N 43°24' E 004°51'0 0.0
2016-May-11 18:33N 43°24' E 004°51'0 0.0
2016-May-11 17:33N 43°24' E 004°51'0 0.0
2016-May-11 16:30N 43°24' E 004°51'0 0.0
2016-May-11 15:33N 43°24' E 004°51'0 0.0
2016-May-11 14:33N 43°24' E 004°51'0 0.0
2016-May-11 13:33N 43°24' E 004°51'0 0.0
2016-May-11 12:33N 43°24' E 004°51'0 0.0
2016-May-11 11:33N 43°24' E 004°51'0 0.0
2016-May-11 10:33N 43°24' E 004°51'0 0.0
2016-May-11 09:33N 43°24' E 004°51'0 0.0
2016-May-11 08:30N 43°24' E 004°51'0 0.0
2016-May-11 07:12N 43°24' E 004°51'0 0.0
2016-May-11 06:30N 43°24' E 004°51'0 0.0
2016-May-11 05:30N 43°24' E 004°51'0 0.0
2016-May-11 04:30N 43°24' E 004°51'0 0.0
2016-May-11 01:30N 43°24' E 004°51'0 0.0
2016-May-11 00:30N 43°24' E 004°51'0 0.0
2016-May-10 23:33N 43°24' E 004°51'0 0.0
2016-May-10 22:33N 43°24' E 004°51'0 0.0
2016-May-10 21:33N 43°24' E 004°51'0 0.0
2016-May-10 20:33N 43°24' E 004°51'0 0.0
2016-May-10 19:33N 43°24' E 004°51'1 0.8
2016-May-10 18:33N 43°24' E 004°52'3 2.6
2016-May-10 17:30N 43°24' E 004°56'0 0.0
2016-May-10 16:30N 43°24' E 004°56'0 0.0
2016-May-10 15:30N 43°24' E 004°56'0 0.0
2016-May-10 14:28N 43°24' E 004°56'0 0.0
2016-May-10 13:30N 43°24' E 004°56'0 0.0
2016-May-10 12:30N 43°24' E 004°56'0 0.0
2016-May-10 11:30N 43°24' E 004°56'0 0.0
2016-May-10 10:28N 43°24' E 004°56'0 0.0
2016-May-10 09:30N 43°24' E 004°56'0 0.1
2016-May-10 08:30N 43°24' E 004°56'0 0.1
2016-May-10 07:30N 43°24' E 004°56'0 0.0
2016-May-10 06:30N 43°24' E 004°56'0 0.0
2016-May-10 05:30N 43°24' E 004°56'0 0.1
2016-May-10 04:30N 43°24' E 004°56'0 0.1
2016-May-10 03:28N 43°24' E 004°56'0 0.0
2016-May-10 02:30N 43°24' E 004°56'0 0.0
2016-May-10 01:30N 43°24' E 004°56'0 0.0
2016-May-10 00:30N 43°24' E 004°56'0 0.0
2016-May-09 23:30N 43°24' E 004°56'0 0.0
2016-May-09 22:30N 43°24' E 004°56'0 0.0
2016-May-09 21:30N 43°24' E 004°56'0 0.0
2016-May-09 20:30N 43°24' E 004°56'0 0.0
2016-May-09 19:30N 43°24' E 004°56'0 0.0
2016-May-09 18:28N 43°24' E 004°56'0 0.0
2016-May-09 17:30N 43°24' E 004°56'0 0.0
2016-May-09 16:30N 43°24' E 004°55'0 0.0
2016-May-09 15:30N 43°24' E 004°56'0 0.0
2016-May-09 14:30N 43°24' E 004°56'0 0.0
2016-May-09 13:30N 43°24' E 004°56'0 0.0
2016-May-09 12:30N 43°24' E 004°56'0 0.0
2016-May-09 11:30N 43°24' E 004°56'0 0.0
2016-May-09 10:30N 43°24' E 004°56'0 0.0
2016-May-09 09:30N 43°24' E 004°56'0 0.0
2016-May-09 08:30N 43°24' E 004°56'0 0.0
2016-May-09 07:30N 43°24' E 004°55'0 0.0
2016-May-09 06:30N 43°24' E 004°55'0 0.0
2016-May-09 05:28N 43°24' E 004°55'0 0.0
2016-May-09 04:30N 43°24' E 004°55'0 0.0
2016-May-09 03:31N 43°24' E 004°55'0 0.0
2016-May-09 02:31N 43°24' E 004°55'0 0.0
2016-May-09 01:31N 43°24' E 004°55'0 0.0
2016-May-09 00:31N 43°24' E 004°56'0 0.0
2016-May-08 23:26N 43°24' E 004°56'0 0.0
2016-May-08 22:32N 43°24' E 004°56'0 0.0
2016-May-08 21:32N 43°24' E 004°56'0 0.0
2016-May-08 20:32N 43°24' E 004°55'0 0.0
2016-May-08 19:32N 43°24' E 004°56'0 0.0
2016-May-08 18:32N 43°24' E 004°55'0 0.0
2016-May-08 17:32N 43°24' E 004°56'0 0.1
2016-May-08 16:32N 43°24' E 004°56'0 0.0
2016-May-08 15:32N 43°24' E 004°56'0 0.0
2016-May-08 14:32N 43°24' E 004°56'0 0.0
2016-May-08 13:32N 43°24' E 004°56'0 0.0
2016-May-08 12:32N 43°24' E 004°56'0 0.0
2016-May-08 11:32N 43°24' E 004°56'0 0.0
2016-May-08 10:32N 43°24' E 004°56'0 0.0
2016-May-08 09:33N 43°24' E 004°56'0 0.0
2016-May-08 08:33N 43°24' E 004°56'0 0.0
2016-May-08 07:33N 43°24' E 004°56'0 0.0
2016-May-08 06:33N 43°24' E 004°56'0 0.0
2016-May-08 05:33N 43°24' E 004°56'0 0.0
2016-May-08 04:33N 43°24' E 004°56'0 0.0
2016-May-08 03:33N 43°24' E 004°56'1 1.4
2016-May-08 02:33N 43°24' E 004°54'2 1.5
2016-May-08 01:29N 43°26' E 004°53'0 0.0
2016-May-08 00:29N 43°26' E 004°53'0 0.0
2016-May-07 23:29N 43°26' E 004°53'0 0.0
2016-May-07 22:29N 43°26' E 004°53'0 0.0
2016-May-07 21:29N 43°26' E 004°53'0 0.0
2016-May-07 20:29N 43°26' E 004°53'0 0.0
2016-May-07 19:30N 43°26' E 004°53'0 0.0
2016-May-07 18:29N 43°26' E 004°53'0 0.0
2016-May-07 17:30N 43°26' E 004°53'0 0.0
2016-May-07 16:30N 43°26' E 004°53'0 0.0
2016-May-07 15:30N 43°26' E 004°53'0 0.0
2016-May-07 14:30N 43°26' E 004°53'0 0.0
2016-May-07 13:30N 43°26' E 004°53'0 0.0
2016-May-07 12:30N 43°26' E 004°53'0 0.0
2016-May-07 11:30N 43°26' E 004°53'0 0.0
2016-May-07 10:31N 43°26' E 004°53'0 0.0
2016-May-07 09:30N 43°26' E 004°53'0 0.0
2016-May-07 08:30N 43°26' E 004°53'0 0.0
2016-May-07 07:30N 43°26' E 004°53'0 0.0
2016-May-07 06:31N 43°26' E 004°53'0 0.0
2016-May-07 05:30N 43°26' E 004°53'0 0.0
2016-May-07 04:30N 43°26' E 004°53'0 0.0
2016-May-07 03:29N 43°26' E 004°53'0 0.0
2016-May-07 02:30N 43°26' E 004°53'0 0.0
2016-May-07 01:30N 43°26' E 004°53'0 0.0
2016-May-07 00:30N 43°26' E 004°53'0 0.0
2016-May-06 23:30N 43°26' E 004°53'0 0.0
2016-May-06 22:30N 43°26' E 004°53'0 0.0
2016-May-06 21:25N 43°26' E 004°53'0 0.0
2016-May-06 20:19N 43°26' E 004°53'0 0.0
2016-May-06 19:25N 43°26' E 004°53'0 0.0
2016-May-06 18:31N 43°26' E 004°53'0 0.0
2016-May-06 17:31N 43°26' E 004°53'0 0.0
2016-May-06 16:31N 43°26' E 004°53'0 0.0
2016-May-06 15:31N 43°26' E 004°53'0 0.0
2016-May-06 14:32N 43°26' E 004°53'0 0.0
2016-May-06 13:32N 43°26' E 004°53'0 0.0
2016-May-06 12:33N 43°26' E 004°53'0 0.0
2016-May-06 11:33N 43°26' E 004°53'0 0.0
2016-May-06 10:32N 43°26' E 004°53'0 0.0
2016-May-06 09:21N 43°26' E 004°53'0 0.0
2016-May-06 08:32N 43°26' E 004°53'0 0.0
2016-May-06 07:32N 43°26' E 004°53'0 0.0
2016-May-06 06:32N 43°26' E 004°53'0 0.0
2016-May-06 05:33N 43°26' E 004°53'0 0.0
2016-May-06 04:33N 43°26' E 004°53'0 0.0
2016-May-06 03:33N 43°26' E 004°53'0 0.0
2016-May-06 02:34N 43°26' E 004°53'0 0.0
2016-May-06 01:28N 43°26' E 004°53'0 0.0
2016-May-06 00:34N 43°26' E 004°53'0 0.0
2016-May-05 23:33N 43°26' E 004°53'0 0.0
2016-May-05 22:34N 43°26' E 004°53'0 0.0
2016-May-05 21:34N 43°26' E 004°53'0 0.0
2016-May-05 20:33N 43°26' E 004°53'0 0.0
2016-May-05 19:33N 43°26' E 004°53'0 0.0
2016-May-05 18:33N 43°26' E 004°53'0 0.0
2016-May-05 17:29N 43°26' E 004°53'0 0.0
2016-May-05 16:33N 43°26' E 004°53'0 0.0
2016-May-05 15:33N 43°26' E 004°53'0 0.0
2016-May-05 14:29N 43°26' E 004°53'0 0.0
2016-May-05 13:33N 43°26' E 004°53'0 0.0
2016-May-05 12:27N 43°26' E 004°53'0 0.0
2016-May-05 11:33N 43°26' E 004°53'0 0.0
2016-May-05 10:33N 43°26' E 004°53'0 0.0
2016-May-05 09:34N 43°26' E 004°53'0 0.0
2016-May-05 08:33N 43°26' E 004°53'0 0.0
2016-May-05 07:34N 43°26' E 004°53'0 0.0
2016-May-05 06:27N 43°26' E 004°53'0 0.0
2016-May-05 05:33N 43°26' E 004°53'0 0.0
2016-May-05 04:27N 43°26' E 004°53'0 0.0
2016-May-05 03:34N 43°26' E 004°53'0 0.0
2016-May-05 02:33N 43°26' E 004°53'0 0.0
2016-May-05 01:33N 43°26' E 004°53'0 0.0
2016-May-05 00:33N 43°26' E 004°53'0 0.0
2016-May-04 23:34N 43°26' E 004°53'0 0.0
2016-May-04 22:33N 43°26' E 004°53'0 0.0
2016-May-04 21:33N 43°26' E 004°53'0 0.0
2016-May-04 20:33N 43°26' E 004°53'0 0.0
2016-May-04 19:31N 43°26' E 004°53'0 0.0
2016-May-04 18:33N 43°26' E 004°53'0 0.0
2016-May-04 17:31N 43°26' E 004°53'0 0.0
2016-May-04 16:33N 43°26' E 004°53'0 0.0
2016-May-04 15:33N 43°26' E 004°53'0 0.0
2016-May-04 14:30N 43°26' E 004°53'0 0.0
2016-May-04 13:33N 43°26' E 004°53'0 0.0
2016-May-04 12:33N 43°26' E 004°53'0 0.0
2016-May-04 11:30N 43°26' E 004°53'0 0.0
2016-May-04 10:31N 43°26' E 004°53'0 0.0
2016-May-04 09:33N 43°26' E 004°53'0 0.0
2016-May-04 08:33N 43°26' E 004°53'0 0.0
2016-May-04 07:33N 43°26' E 004°53'0 0.0
2016-May-04 06:33N 43°26' E 004°53'0 0.0
2016-May-04 05:34N 43°26' E 004°53'0 0.0
2016-May-04 04:33N 43°26' E 004°53'0 0.0
2016-May-04 03:31N 43°26' E 004°53'0 0.0
2016-May-04 02:31N 43°26' E 004°53'0 0.0
2016-May-04 01:30N 43°26' E 004°53'0 0.0
2016-May-04 00:30N 43°26' E 004°53'0 0.0
2016-May-03 23:28N 43°26' E 004°53'0 0.0
2016-May-03 22:30N 43°26' E 004°53'0 0.0
2016-May-03 21:28N 43°26' E 004°53'0 0.0
2016-May-03 20:32N 43°26' E 004°53'0 0.0
2016-May-03 19:32N 43°26' E 004°53'  
Track history (hours):
 
Tides and Currents Weather Stations Pressure Air Temp Water Temp Dewpoint Dewpoint Depression Visibility Wind Speed Wind Dir Waves Ship Positions

Gazi

Last reported at 2016-May-13 19:26 UTC. Time now 2016-May-26 04:41 UTC.
Position N 42°55' E 005°07'.
Warning: this ship's position is 12 days out of date.

Length 153 m; draft 9.6 m.

Type: Ship. MMSI: 248841000.

Date/timePositionNaut miles runAvg speedWind from/ knotsBaromVisibWave heightAir tempDewpointWater temp
2016-May-13 19:26N 42°55' E 005°07'1312.0
2016-May-13 18:23N 43°07' E 005°02'1011.8
2016-May-13 17:34N 43°17' E 004°60'7 6.6
2016-May-13 16:31N 43°23' E 004°58'0 0.1
2016-May-13 15:31N 43°23' E 004°58'0 0.0
2016-May-13 14:31N 43°23' E 004°58'0 0.2
2016-May-13 13:31N 43°23' E 004°57'5 4.9
2016-May-13 12:33N 43°24' E 004°51'0 0.1
2016-May-13 11:32N 43°24' E 004°51'0 0.0
2016-May-13 10:32N 43°24' E 004°51'0 0.0
2016-May-13 09:32N 43°24' E 004°51'0 0.0
2016-May-13 08:32N 43°24' E 004°51'0 0.0
2016-May-13 07:32N 43°24' E 004°51'0 0.0
2016-May-13 06:32N 43°24' E 004°51'0 0.0
2016-May-13 05:32N 43°24' E 004°51'0 0.0
2016-May-13 04:32N 43°24' E 004°51'0 0.0
2016-May-13 03:32N 43°24' E 004°51'0 0.0
2016-May-13 02:32N 43°24' E 004°51'0 0.0
2016-May-13 01:32N 43°24' E 004°51'0 0.0
2016-May-13 00:32N 43°24' E 004°51'0 0.0
2016-May-12 23:32N 43°24' E 004°51'0 0.0
2016-May-12 22:32N 43°24' E 004°51'0 0.0
2016-May-12 21:29N 43°24' E 004°51'0 0.0
2016-May-12 20:32N 43°24' E 004°51'0 0.0
2016-May-12 19:32N 43°24' E 004°51'0 0.0
2016-May-12 18:32N 43°24' E 004°51'0 0.0
2016-May-12 17:20N 43°24' E 004°51'0 0.0
2016-May-12 16:32N 43°24' E 004°51'0 0.0
2016-May-12 15:32N 43°24' E 004°51'0 0.0
2016-May-12 14:33N 43°24' E 004°51'0 0.0
2016-May-12 13:33N 43°24' E 004°51'0 0.0
2016-May-12 12:33N 43°24' E 004°51'0 0.0
2016-May-12 11:33N 43°24' E 004°51'0 0.0
2016-May-12 10:33N 43°24' E 004°51'0 0.0
2016-May-12 09:33N 43°24' E 004°51'0 0.0
2016-May-12 08:33N 43°24' E 004°51'0 0.0
2016-May-12 07:33N 43°24' E 004°51'0 0.0
2016-May-12 06:33N 43°24' E 004°51'0 0.0
2016-May-12 05:33N 43°24' E 004°51'0 0.0
2016-May-12 04:33N 43°24' E 004°51'0 0.0
2016-May-12 03:33N 43°24' E 004°51'0 0.0
2016-May-12 02:33N 43°24' E 004°51'0 0.0
2016-May-12 01:33N 43°24' E 004°51'0 0.0
2016-May-12 00:33N 43°24' E 004°51'0 0.0
2016-May-11 23:33N 43°24' E 004°51'0 0.0
2016-May-11 22:29N 43°24' E 004°51'0 0.0
2016-May-11 21:33N 43°24' E 004°51'0 0.0
2016-May-11 20:33N 43°24' E 004°51'0 0.0
2016-May-11 19:33N 43°24' E 004°51'0 0.0
2016-May-11 18:33N 43°24' E 004°51'0 0.0
2016-May-11 17:33N 43°24' E 004°51'0 0.0
2016-May-11 16:30N 43°24' E 004°51'0 0.0
2016-May-11 15:33N 43°24' E 004°51'0 0.0
2016-May-11 14:33N 43°24' E 004°51'0 0.0
2016-May-11 13:33N 43°24' E 004°51'0 0.0
2016-May-11 12:33N 43°24' E 004°51'0 0.0
2016-May-11 11:33N 43°24' E 004°51'0 0.0
2016-May-11 10:33N 43°24' E 004°51'0 0.0
2016-May-11 09:33N 43°24' E 004°51'0 0.0
2016-May-11 08:30N 43°24' E 004°51'0 0.0
2016-May-11 07:12N 43°24' E 004°51'0 0.0
2016-May-11 06:30N 43°24' E 004°51'0 0.0
2016-May-11 05:30N 43°24' E 004°51'0 0.0
2016-May-11 04:30N 43°24' E 004°51'0 0.0
2016-May-11 01:30N 43°24' E 004°51'0 0.0
2016-May-11 00:30N 43°24' E 004°51'0 0.0
2016-May-10 23:33N 43°24' E 004°51'0 0.0
2016-May-10 22:33N 43°24' E 004°51'0 0.0
2016-May-10 21:33N 43°24' E 004°51'0 0.0
2016-May-10 20:33N 43°24' E 004°51'0 0.0
2016-May-10 19:33N 43°24' E 004°51'1 0.8
2016-May-10 18:33N 43°24' E 004°52'3 2.6
2016-May-10 17:30N 43°24' E 004°56'0 0.0
2016-May-10 16:30N 43°24' E 004°56'0 0.0
2016-May-10 15:30N 43°24' E 004°56'0 0.0
2016-May-10 14:28N 43°24' E 004°56'0 0.0
2016-May-10 13:30N 43°24' E 004°56'0 0.0
2016-May-10 12:30N 43°24' E 004°56'0 0.0
2016-May-10 11:30N 43°24' E 004°56'0 0.0
2016-May-10 10:28N 43°24' E 004°56'0 0.0
2016-May-10 09:30N 43°24' E 004°56'0 0.1
2016-May-10 08:30N 43°24' E 004°56'0 0.1
2016-May-10 07:30N 43°24' E 004°56'0 0.0
2016-May-10 06:30N 43°24' E 004°56'0 0.0
2016-May-10 05:30N 43°24' E 004°56'0 0.1
2016-May-10 04:30N 43°24' E 004°56'0 0.1
2016-May-10 03:28N 43°24' E 004°56'0 0.0
2016-May-10 02:30N 43°24' E 004°56'0 0.0
2016-May-10 01:30N 43°24' E 004°56'0 0.0
2016-May-10 00:30N 43°24' E 004°56'0 0.0
2016-May-09 23:30N 43°24' E 004°56'0 0.0
2016-May-09 22:30N 43°24' E 004°56'0 0.0
2016-May-09 21:30N 43°24' E 004°56'0 0.0
2016-May-09 20:30N 43°24' E 004°56'0 0.0
2016-May-09 19:30N 43°24' E 004°56'0 0.0
2016-May-09 18:28N 43°24' E 004°56'0 0.0
2016-May-09 17:30N 43°24' E 004°56'0 0.0
2016-May-09 16:30N 43°24' E 004°55'0 0.0
2016-May-09 15:30N 43°24' E 004°56'0 0.0
2016-May-09 14:30N 43°24' E 004°56'0 0.0
2016-May-09 13:30N 43°24' E 004°56'0 0.0
2016-May-09 12:30N 43°24' E 004°56'0 0.0
2016-May-09 11:30N 43°24' E 004°56'0 0.0
2016-May-09 10:30N 43°24' E 004°56'0 0.0
2016-May-09 09:30N 43°24' E 004°56'0 0.0
2016-May-09 08:30N 43°24' E 004°56'0 0.0
2016-May-09 07:30N 43°24' E 004°55'0 0.0
2016-May-09 06:30N 43°24' E 004°55'0 0.0
2016-May-09 05:28N 43°24' E 004°55'0 0.0
2016-May-09 04:30N 43°24' E 004°55'0 0.0
2016-May-09 03:31N 43°24' E 004°55'0 0.0
2016-May-09 02:31N 43°24' E 004°55'0 0.0
2016-May-09 01:31N 43°24' E 004°55'0 0.0
2016-May-09 00:31N 43°24' E 004°56'0 0.0
2016-May-08 23:26N 43°24' E 004°56'0 0.0
2016-May-08 22:32N 43°24' E 004°56'0 0.0
2016-May-08 21:32N 43°24' E 004°56'0 0.0
2016-May-08 20:32N 43°24' E 004°55'0 0.0
2016-May-08 19:32N 43°24' E 004°56'0 0.0
2016-May-08 18:32N 43°24' E 004°55'0 0.0
2016-May-08 17:32N 43°24' E 004°56'0 0.1
2016-May-08 16:32N 43°24' E 004°56'0 0.0
2016-May-08 15:32N 43°24' E 004°56'0 0.0
2016-May-08 14:32N 43°24' E 004°56'0 0.0
2016-May-08 13:32N 43°24' E 004°56'0 0.0
2016-May-08 12:32N 43°24' E 004°56'0 0.0
2016-May-08 11:32N 43°24' E 004°56'0 0.0
2016-May-08 10:32N 43°24' E 004°56'0 0.0
2016-May-08 09:33N 43°24' E 004°56'0 0.0
2016-May-08 08:33N 43°24' E 004°56'0 0.0
2016-May-08 07:33N 43°24' E 004°56'0 0.0
2016-May-08 06:33N 43°24' E 004°56'0 0.0
2016-May-08 05:33N 43°24' E 004°56'0 0.0
2016-May-08 04:33N 43°24' E 004°56'0 0.0
2016-May-08 03:33N 43°24' E 004°56'1 1.4
2016-May-08 02:33N 43°24' E 004°54'2 1.5
2016-May-08 01:29N 43°26' E 004°53'0 0.0
2016-May-08 00:29N 43°26' E 004°53'0 0.0
2016-May-07 23:29N 43°26' E 004°53'0 0.0
2016-May-07 22:29N 43°26' E 004°53'0 0.0
2016-May-07 21:29N 43°26' E 004°53'0 0.0
2016-May-07 20:29N 43°26' E 004°53'0 0.0
2016-May-07 19:30N 43°26' E 004°53'0 0.0
2016-May-07 18:29N 43°26' E 004°53'0 0.0
2016-May-07 17:30N 43°26' E 004°53'0 0.0
2016-May-07 16:30N 43°26' E 004°53'0 0.0
2016-May-07 15:30N 43°26' E 004°53'0 0.0
2016-May-07 14:30N 43°26' E 004°53'0 0.0
2016-May-07 13:30N 43°26' E 004°53'0 0.0
2016-May-07 12:30N 43°26' E 004°53'0 0.0
2016-May-07 11:30N 43°26' E 004°53'0 0.0
2016-May-07 10:31N 43°26' E 004°53'0 0.0
2016-May-07 09:30N 43°26' E 004°53'0 0.0
2016-May-07 08:30N 43°26' E 004°53'0 0.0
2016-May-07 07:30N 43°26' E 004°53'0 0.0
2016-May-07 06:31N 43°26' E 004°53'0 0.0
2016-May-07 05:30N 43°26' E 004°53'0 0.0
2016-May-07 04:30N 43°26' E 004°53'0 0.0
2016-May-07 03:29N 43°26' E 004°53'0 0.0
2016-May-07 02:30N 43°26' E 004°53'0 0.0
2016-May-07 01:30N 43°26' E 004°53'0 0.0
2016-May-07 00:30N 43°26' E 004°53'0 0.0
2016-May-06 23:30N 43°26' E 004°53'0 0.0
2016-May-06 22:30N 43°26' E 004°53'0 0.0
2016-May-06 21:25N 43°26' E 004°53'0 0.0
2016-May-06 20:19N 43°26' E 004°53'0 0.0
2016-May-06 19:25N 43°26' E 004°53'0 0.0
2016-May-06 18:31N 43°26' E 004°53'0 0.0
2016-May-06 17:31N 43°26' E 004°53'0 0.0
2016-May-06 16:31N 43°26' E 004°53'0 0.0
2016-May-06 15:31N 43°26' E 004°53'0 0.0
2016-May-06 14:32N 43°26' E 004°53'0 0.0
2016-May-06 13:32N 43°26' E 004°53'0 0.0
2016-May-06 12:33N 43°26' E 004°53'0 0.0
2016-May-06 11:33N 43°26' E 004°53'0 0.0
2016-May-06 10:32N 43°26' E 004°53'0 0.0
2016-May-06 09:21N 43°26' E 004°53'0 0.0
2016-May-06 08:32N 43°26' E 004°53'0 0.0
2016-May-06 07:32N 43°26' E 004°53'0 0.0
2016-May-06 06:32N 43°26' E 004°53'0 0.0
2016-May-06 05:33N 43°26' E 004°53'0 0.0
2016-May-06 04:33N 43°26' E 004°53'0 0.0
2016-May-06 03:33N 43°26' E 004°53'0 0.0
2016-May-06 02:34N 43°26' E 004°53'0 0.0
2016-May-06 01:28N 43°26' E 004°53'0 0.0
2016-May-06 00:34N 43°26' E 004°53'0 0.0
2016-May-05 23:33N 43°26' E 004°53'0 0.0
2016-May-05 22:34N 43°26' E 004°53'0 0.0
2016-May-05 21:34N 43°26' E 004°53'0 0.0
2016-May-05 20:33N 43°26' E 004°53'0 0.0
2016-May-05 19:33N 43°26' E 004°53'0 0.0
2016-May-05 18:33N 43°26' E 004°53'0 0.0
2016-May-05 17:29N 43°26' E 004°53'0 0.0
2016-May-05 16:33N 43°26' E 004°53'0 0.0
2016-May-05 15:33N 43°26' E 004°53'0 0.0
2016-May-05 14:29N 43°26' E 004°53'0 0.0
2016-May-05 13:33N 43°26' E 004°53'0 0.0
2016-May-05 12:27N 43°26' E 004°53'0 0.0
2016-May-05 11:33N 43°26' E 004°53'0 0.0
2016-May-05 10:33N 43°26' E 004°53'0 0.0
2016-May-05 09:34N 43°26' E 004°53'0 0.0
2016-May-05 08:33N 43°26' E 004°53'0 0.0
2016-May-05 07:34N 43°26' E 004°53'0 0.0
2016-May-05 06:27N 43°26' E 004°53'0 0.0
2016-May-05 05:33N 43°26' E 004°53'0 0.0
2016-May-05 04:27N 43°26' E 004°53'0 0.0
2016-May-05 03:34N 43°26' E 004°53'0 0.0
2016-May-05 02:33N 43°26' E 004°53'0 0.0
2016-May-05 01:33N 43°26' E 004°53'0 0.0
2016-May-05 00:33N 43°26' E 004°53'0 0.0
2016-May-04 23:34N 43°26' E 004°53'0 0.0
2016-May-04 22:33N 43°26' E 004°53'0 0.0
2016-May-04 21:33N 43°26' E 004°53'0 0.0
2016-May-04 20:33N 43°26' E 004°53'0 0.0
2016-May-04 19:31N 43°26' E 004°53'0 0.0
2016-May-04 18:33N 43°26' E 004°53'0 0.0
2016-May-04 17:31N 43°26' E 004°53'0 0.0
2016-May-04 16:33N 43°26' E 004°53'0 0.0
2016-May-04 15:33N 43°26' E 004°53'0 0.0
2016-May-04 14:30N 43°26' E 004°53'0 0.0
2016-May-04 13:33N 43°26' E 004°53'0 0.0
2016-May-04 12:33N 43°26' E 004°53'0 0.0
2016-May-04 11:30N 43°26' E 004°53'0 0.0
2016-May-04 10:31N 43°26' E 004°53'0 0.0
2016-May-04 09:33N 43°26' E 004°53'0 0.0
2016-May-04 08:33N 43°26' E 004°53'0 0.0
2016-May-04 07:33N 43°26' E 004°53'0 0.0
2016-May-04 06:33N 43°26' E 004°53'0 0.0
2016-May-04 05:34N 43°26' E 004°53'0 0.0
2016-May-04 04:33N 43°26' E 004°53'0 0.0
2016-May-04 03:31N 43°26' E 004°53'0 0.0
2016-May-04 02:31N 43°26' E 004°53'0 0.0
2016-May-04 01:30N 43°26' E 004°53'0 0.0
2016-May-04 00:30N 43°26' E 004°53'0 0.0
2016-May-03 23:28N 43°26' E 004°53'0 0.0
2016-May-03 22:30N 43°26' E 004°53'0 0.0
2016-May-03 21:28N 43°26' E 004°53'0 0.0
2016-May-03 20:32N 43°26' E 004°53'0 0.0
2016-May-03 19:32N 43°26' E 004°53'  

Dump ship's entire track history